createdAt,value
2022-09-27T00:04:16.447Z,100.00
2022-09-27T00:09:17.798Z,100.00
2022-09-27T00:14:19.249Z,100.00
2022-09-27T00:19:23.998Z,100.00
2022-09-27T00:24:25.352Z,100.00
2022-09-27T00:29:26.789Z,100.00
2022-09-27T00:34:28.187Z,100.00
2022-09-27T00:39:29.572Z,100.00
2022-09-27T00:44:30.921Z,100.00
2022-09-27T00:49:43.524Z,100.00
2022-09-27T00:54:50.550Z,100.00
2022-09-27T01:00:02.472Z,100.00
2022-09-27T01:05:06.214Z,100.00
2022-09-27T01:10:08.405Z,100.00
2022-09-27T01:15:21.935Z,100.00
2022-09-27T01:20:44.852Z,100.00
2022-09-27T01:26:15.871Z,100.00
2022-09-27T01:31:37.971Z,100.00
2022-09-27T01:37:04.641Z,100.00
2022-09-27T01:42:22.175Z,100.00
2022-09-27T01:47:34.551Z,100.00
2022-09-27T01:52:56.915Z,100.00
2022-09-27T01:58:04.361Z,100.00
2022-09-27T02:03:25.128Z,100.00
2022-09-27T02:09:07.991Z,100.00
2022-09-27T02:14:19.520Z,100.00
2022-09-27T02:19:58.410Z,100.00
2022-09-27T02:25:14.119Z,100.00
2022-09-27T02:30:16.239Z,100.00
2022-09-27T02:35:23.858Z,100.00
2022-09-27T02:40:30.052Z,100.00
2022-09-27T02:45:54.004Z,100.00
2022-09-27T02:51:05.427Z,100.00
2022-09-27T02:56:21.934Z,100.00
2022-09-27T03:01:39.115Z,100.00
2022-09-27T03:06:45.033Z,100.00
2022-09-27T03:17:07.771Z,100.00
2022-09-27T03:22:09.284Z,100.00
2022-09-27T03:27:12.289Z,100.00
2022-09-27T03:32:13.961Z,100.00
2022-09-27T03:37:15.940Z,100.00
2022-09-27T03:42:19.877Z,100.00
2022-09-27T03:47:21.396Z,100.00
2022-09-27T03:52:22.808Z,100.00
2022-09-27T03:57:24.542Z,100.00
2022-09-27T04:02:28.823Z,100.00
2022-09-27T04:07:30.601Z,100.00
2022-09-27T04:12:32.050Z,100.00
2022-09-27T04:17:34.380Z,100.00
2022-09-27T04:22:39.224Z,100.00
2022-09-27T04:27:45.972Z,100.00
2022-09-27T04:32:47.866Z,100.00
2022-09-27T04:37:49.853Z,100.00
2022-09-27T04:42:51.961Z,100.00
2022-09-27T04:47:53.382Z,100.00
2022-09-27T04:52:57.993Z,100.00
2022-09-27T04:57:59.418Z,100.00
2022-09-27T05:03:00.959Z,100.00
2022-09-27T05:08:02.749Z,100.00
2022-09-27T05:13:04.845Z,100.00
2022-09-27T05:18:07.245Z,100.00
2022-09-27T05:23:13.923Z,100.00
2022-09-27T05:28:16.167Z,100.00
2022-09-27T05:33:17.928Z,100.00
2022-09-27T05:38:19.545Z,100.00
2022-09-27T05:43:21.199Z,100.00
2022-09-27T05:48:32.047Z,100.00
2022-09-27T05:53:34.566Z,100.00
2022-09-27T05:58:36.444Z,100.00
2022-09-27T06:03:38.370Z,100.00
2022-09-27T06:08:40.766Z,100.00
2022-09-27T06:13:42.467Z,100.00
2022-09-27T06:18:48.719Z,100.00
2022-09-27T06:23:54.096Z,100.00
2022-09-27T06:29:01.836Z,100.00
2022-09-27T06:34:11.013Z,100.00
2022-09-27T06:39:12.841Z,100.00
2022-09-27T06:44:14.311Z,100.00
2022-09-27T06:49:15.873Z,100.00
2022-09-27T06:54:17.373Z,100.00
2022-09-27T06:59:18.926Z,100.00
2022-09-27T07:04:21.771Z,100.00
2022-09-27T07:09:23.178Z,100.00
2022-09-27T07:14:24.531Z,100.00
2022-09-27T07:19:26.029Z,100.00
2022-09-27T07:24:27.370Z,100.00
2022-09-27T07:29:28.833Z,100.00
2022-09-27T07:34:30.508Z,100.00
2022-09-27T07:39:32.080Z,100.00
2022-09-27T07:44:33.731Z,100.00
2022-09-27T07:49:42.844Z,100.00
2022-09-27T07:54:44.242Z,100.00
2022-09-27T07:59:45.651Z,100.00
2022-09-27T08:04:47.029Z,100.00
2022-09-27T08:09:48.988Z,100.00
2022-09-27T08:14:51.252Z,100.00
2022-09-27T08:19:52.707Z,100.00
2022-09-27T08:24:54.155Z,98.58
2022-09-27T08:29:55.645Z,98.08
2022-09-27T08:34:57.315Z,93.86
2022-09-27T08:39:58.752Z,93.76
2022-09-27T08:45:18.681Z,90.49
2022-09-27T08:50:23.255Z,88.67
2022-09-27T08:55:36.728Z,84.49
2022-09-27T09:00:39.376Z,80.45
2022-09-27T09:05:41.077Z,77.25
2022-09-27T09:11:05.896Z,74.02
2022-09-27T09:16:22.939Z,75.71
2022-09-27T09:21:35.695Z,77.48
2022-09-27T09:27:06.011Z,77.39
2022-09-27T09:32:30.809Z,73.40
2022-09-27T09:37:41.060Z,76.67
2022-09-27T09:43:02.714Z,77.85
2022-09-27T09:48:24.313Z,81.63
2022-09-27T09:53:39.909Z,84.38
2022-09-27T09:59:09.460Z,85.64
2022-09-27T10:04:24.177Z,87.89
2022-09-27T10:09:27.296Z,88.46
2022-09-27T10:14:29.361Z,87.84
2022-09-27T10:19:34.476Z,88.42
2022-09-27T10:25:00.306Z,87.76
2022-09-27T10:30:01.734Z,86.70
2022-09-27T10:35:31.739Z,87.87
2022-09-27T10:40:33.174Z,87.95
2022-09-27T10:45:34.856Z,89.09
2022-09-27T10:50:50.654Z,91.74
2022-09-27T10:55:53.730Z,89.47
2022-09-27T11:01:01.502Z,90.10
2022-09-27T11:06:24.814Z,88.76
2022-09-27T11:11:27.779Z,85.51
2022-09-27T11:16:41.956Z,82.90
2022-09-27T11:22:16.946Z,81.39
2022-09-27T11:27:24.986Z,80.03
2022-09-27T11:33:03.372Z,78.10
2022-09-27T11:38:51.227Z,76.09
2022-09-27T11:44:16.943Z,74.12
2022-09-27T11:49:20.943Z,73.62
2022-09-27T11:54:59.444Z,75.15
2022-09-27T12:00:19.238Z,81.74
2022-09-27T12:05:38.640Z,84.79
2022-09-27T12:10:46.222Z,83.96
2022-09-27T12:15:48.634Z,87.60
2022-09-27T12:20:50.345Z,92.15
2022-09-27T12:25:58.696Z,93.72
2022-09-27T12:31:27.946Z,93.29
2022-09-27T12:36:38.643Z,92.98
2022-09-27T12:41:47.944Z,96.60
2022-09-27T12:47:10.271Z,97.93
2022-09-27T12:52:17.951Z,100.00
2022-09-27T12:57:43.689Z,100.00
2022-09-27T13:03:25.819Z,100.00
2022-09-27T13:08:53.804Z,100.00
2022-09-27T13:13:58.307Z,100.00
2022-09-27T13:19:00.273Z,100.00
2022-09-27T13:24:01.673Z,100.00
2022-09-27T13:29:03.365Z,100.00
2022-09-27T13:34:04.819Z,100.00
2022-09-27T13:39:09.420Z,100.00
2022-09-27T13:44:31.386Z,99.59
2022-09-27T13:49:42.812Z,95.73
2022-09-27T13:54:56.271Z,97.75
2022-09-27T14:00:02.109Z,96.55
2022-09-27T14:05:04.552Z,96.00
2022-09-27T14:10:12.740Z,94.86
2022-09-27T14:15:40.842Z,91.59
2022-09-27T14:20:45.444Z,89.93
2022-09-27T14:25:48.950Z,89.31
2022-09-27T14:31:16.467Z,91.61
2022-09-27T14:36:31.444Z,92.85
2022-09-27T14:41:37.733Z,92.48
2022-09-27T14:46:39.298Z,90.25
2022-09-27T14:51:40.694Z,92.15
2022-09-27T14:56:42.326Z,89.33
2022-09-27T15:01:51.209Z,90.47
2022-09-27T15:06:52.938Z,90.40
2022-09-27T15:11:59.244Z,91.27
2022-09-27T15:17:00.846Z,92.04
2022-09-27T15:22:33.181Z,94.19
2022-09-27T15:27:34.753Z,97.50
2022-09-27T15:32:36.475Z,99.39
2022-09-27T15:37:39.372Z,99.17
2022-09-27T15:42:57.408Z,98.28
2022-09-27T15:48:13.415Z,97.05
2022-09-27T15:53:33.212Z,95.85
2022-09-27T15:58:35.407Z,93.02
2022-09-27T16:03:36.753Z,94.64
2022-09-27T16:08:38.109Z,93.38
2022-09-27T16:13:39.552Z,91.28
2022-09-27T16:18:40.931Z,92.87
2022-09-27T16:23:42.295Z,92.73
2022-09-27T16:28:43.625Z,93.76
2022-09-27T16:33:48.198Z,94.02
2022-09-27T16:38:50.987Z,93.58
2022-09-27T16:43:52.338Z,92.66
2022-09-27T16:48:58.554Z,95.32
2022-09-27T16:53:59.936Z,95.21
2022-09-27T16:59:02.419Z,97.55
2022-09-27T17:04:03.977Z,100.00
2022-09-27T17:09:05.726Z,100.00
2022-09-27T17:14:07.075Z,100.00
2022-09-27T17:19:10.260Z,100.00
2022-09-27T17:24:11.934Z,100.00
2022-09-27T17:29:14.413Z,100.00
2022-09-27T17:34:16.485Z,100.00
2022-09-27T17:39:19.999Z,100.00
2022-09-27T17:44:21.426Z,100.00
2022-09-27T17:49:22.771Z,100.00
2022-09-27T17:54:25.543Z,100.00
2022-09-27T17:59:26.919Z,100.00
2022-09-27T18:04:28.274Z,100.00
2022-09-27T18:09:31.638Z,100.00
2022-09-27T18:14:33.250Z,100.00
2022-09-27T18:19:39.078Z,100.00
2022-09-27T18:24:43.565Z,100.00
2022-09-27T18:29:50.710Z,100.00
2022-09-27T18:34:59.433Z,100.00
2022-09-27T18:40:01.132Z,100.00
2022-09-27T18:45:13.164Z,100.00
2022-09-27T18:50:15.023Z,100.00
2022-09-27T18:55:16.489Z,100.00
2022-09-27T19:00:18.068Z,100.00
2022-09-27T19:05:19.434Z,100.00
2022-09-27T19:10:20.872Z,100.00
2022-09-27T19:15:48.342Z,100.00
2022-09-27T19:20:49.756Z,100.00
2022-09-27T19:25:51.121Z,100.00
2022-09-27T19:30:52.545Z,100.00
2022-09-27T19:35:53.975Z,100.00
2022-09-27T19:40:55.616Z,100.00
2022-09-27T19:46:06.475Z,100.00
2022-09-27T19:51:12.479Z,100.00
2022-09-27T19:56:14.676Z,100.00
2022-09-27T20:01:19.263Z,100.00
2022-09-27T20:06:21.189Z,100.00
2022-09-27T20:11:23.479Z,100.00
2022-09-27T20:16:26.454Z,100.00
2022-09-27T20:21:32.778Z,100.00
2022-09-27T20:26:34.722Z,100.00
2022-09-27T20:31:38.093Z,100.00
2022-09-27T20:36:42.231Z,100.00
2022-09-27T20:41:45.405Z,100.00
2022-09-27T20:46:48.058Z,100.00
2022-09-27T20:51:49.468Z,100.00
2022-09-27T20:56:50.796Z,100.00
2022-09-27T21:01:52.567Z,100.00
2022-09-27T21:06:54.127Z,100.00
2022-09-27T21:11:55.547Z,100.00
2022-09-27T21:17:01.120Z,100.00
2022-09-27T21:22:03.586Z,100.00
2022-09-27T21:27:05.119Z,100.00
2022-09-27T21:32:06.715Z,100.00
2022-09-27T21:37:08.138Z,100.00
2022-09-27T21:42:09.633Z,100.00
2022-09-27T21:47:13.393Z,100.00
2022-09-27T21:52:14.782Z,100.00
2022-09-27T21:57:16.274Z,100.00
2022-09-27T22:02:20.883Z,100.00
2022-09-27T22:07:22.347Z,100.00
2022-09-27T22:12:23.725Z,100.00
2022-09-27T22:17:25.123Z,100.00
2022-09-27T22:22:26.594Z,100.00
2022-09-27T22:27:28.517Z,100.00
2022-09-27T22:32:30.186Z,100.00
2022-09-27T22:37:31.999Z,100.00
2022-09-27T22:42:34.540Z,100.00
2022-09-27T22:47:36.380Z,100.00
2022-09-27T22:52:37.858Z,100.00
2022-09-27T22:57:39.485Z,100.00
2022-09-27T23:02:40.853Z,100.00
2022-09-27T23:07:42.243Z,100.00
2022-09-27T23:12:44.385Z,100.00
2022-09-27T23:17:49.199Z,100.00
2022-09-27T23:22:50.557Z,100.00
2022-09-27T23:27:52.020Z,100.00
2022-09-27T23:32:54.362Z,100.00
2022-09-27T23:37:55.736Z,100.00
2022-09-27T23:42:57.101Z,100.00
2022-09-27T23:47:58.629Z,100.00
2022-09-27T23:53:00.136Z,100.00
2022-09-27T23:58:01.612Z,100.00
